createdAt,value
2023-04-14T00:00:02.141Z,97741.19
2023-04-14T00:02:28.370Z,97743.03
2023-04-14T00:04:54.683Z,97745.50
2023-04-14T00:07:20.815Z,97743.84
2023-04-14T00:09:46.931Z,97735.03
2023-04-14T00:12:13.062Z,97745.69
2023-04-14T00:14:39.168Z,97734.22
2023-04-14T00:17:05.297Z,97739.56
2023-04-14T00:19:31.413Z,97736.88
2023-04-14T00:21:57.507Z,97735.84
2023-04-14T00:24:23.619Z,97748.56
2023-04-14T00:26:49.750Z,97753.91
2023-04-14T00:29:15.845Z,97751.25
2023-04-14T00:31:41.963Z,97758.25
2023-04-14T00:34:08.110Z,97765.44
2023-04-14T00:36:34.210Z,97768.91
2023-04-14T00:39:00.532Z,97764.59
2023-04-14T00:41:26.794Z,97767.25
2023-04-14T00:43:52.914Z,97763.56
2023-04-14T00:46:19.096Z,97763.78
2023-04-14T00:48:45.793Z,97766.44
2023-04-14T00:51:11.949Z,97767.25
2023-04-14T00:53:38.084Z,97757.63
2023-04-14T00:56:04.194Z,97769.13
2023-04-14T00:58:30.279Z,97756.81
2023-04-14T01:00:56.404Z,97763.78
2023-04-14T01:03:22.794Z,97769.13
2023-04-14T01:05:49.099Z,97774.44
2023-04-14T01:08:15.188Z,97773.66
2023-04-14T01:10:41.300Z,97784.31
2023-04-14T01:13:07.405Z,97782.66
2023-04-14T01:15:33.494Z,97777.31
2023-04-14T01:17:59.717Z,97775.50
2023-04-14T01:20:25.838Z,97776.31
2023-04-14T01:22:51.916Z,97781.66
2023-04-14T01:25:18.039Z,97780.00
2023-04-14T01:27:44.134Z,97780.84
2023-04-14T01:30:10.243Z,97780.00
2023-04-14T01:32:36.390Z,97784.53
2023-04-14T01:35:02.543Z,97778.38
2023-04-14T01:37:28.635Z,97782.66
2023-04-14T01:39:54.743Z,97786.38
2023-04-14T01:42:20.846Z,97777.56
2023-04-14T01:44:46.937Z,97784.53
2023-04-14T01:47:13.051Z,97781.03
2023-04-14T01:49:39.177Z,97789.84
2023-04-14T01:52:05.379Z,97786.59
2023-04-14T01:54:31.534Z,97788.25
2023-04-14T01:56:57.627Z,97777.75
2023-04-14T01:59:23.726Z,97779.41
2023-04-14T02:01:49.895Z,97777.75
2023-04-14T02:04:16.037Z,97777.75
2023-04-14T02:06:42.171Z,97782.91
2023-04-14T02:09:08.769Z,97767.09
2023-04-14T02:11:34.866Z,97776.16
2023-04-14T02:14:00.975Z,97778.81
2023-04-14T02:16:27.195Z,97784.97
2023-04-14T02:18:53.314Z,97781.47
2023-04-14T02:21:19.440Z,97785.78
2023-04-14T02:23:45.584Z,97780.44
2023-04-14T02:26:11.732Z,97784.16
2023-04-14T02:28:37.845Z,97786.81
2023-04-14T02:31:04.042Z,97790.28
2023-04-14T02:33:30.172Z,97778.81
2023-04-14T02:35:56.266Z,97782.50
2023-04-14T02:38:22.385Z,97785.16
2023-04-14T02:40:48.477Z,97781.47
2023-04-14T02:43:14.572Z,97780.66
2023-04-14T02:45:40.711Z,97782.50
2023-04-14T02:48:06.820Z,97793.16
2023-04-14T02:50:32.946Z,97790.50
2023-04-14T02:52:59.112Z,97788.69
2023-04-14T02:55:25.198Z,97792.34
2023-04-14T02:57:51.303Z,97790.50
2023-04-14T03:00:17.456Z,97795.84
2023-04-14T03:02:43.690Z,97798.50
2023-04-14T03:05:09.879Z,97795.03
2023-04-14T03:07:35.982Z,97793.41
2023-04-14T03:10:02.099Z,97796.06
2023-04-14T03:12:28.207Z,97799.56
2023-04-14T03:14:54.354Z,97802.22
2023-04-14T03:17:20.482Z,97797.91
2023-04-14T03:19:46.575Z,97812.09
2023-04-14T03:22:12.705Z,97813.72
2023-04-14T03:24:38.814Z,97812.91
2023-04-14T03:27:04.905Z,97811.25
2023-04-14T03:29:31.005Z,97815.75
2023-04-14T03:31:57.117Z,97812.28
2023-04-14T03:34:23.206Z,97807.75
2023-04-14T03:36:49.448Z,97817.41
2023-04-14T03:39:15.549Z,97806.94
2023-04-14T03:41:41.665Z,97805.31
2023-04-14T03:44:07.782Z,97817.63
2023-04-14T03:46:33.910Z,97814.97
2023-04-14T03:49:00.919Z,97812.28
2023-04-14T03:51:27.226Z,97818.66
2023-04-14T03:53:53.309Z,97814.16
2023-04-14T03:56:19.403Z,97812.28
2023-04-14T03:58:45.577Z,97808.81
2023-04-14T04:01:11.676Z,97809.63
2023-04-14T04:03:38.005Z,97807.16
2023-04-14T04:06:04.268Z,97809.81
2023-04-14T04:08:30.365Z,97813.34
2023-04-14T04:10:56.462Z,97821.34
2023-04-14T04:13:22.620Z,97816.00
2023-04-14T04:15:48.819Z,97815.38
2023-04-14T04:18:14.911Z,97825.81
2023-04-14T04:20:41.028Z,97823.16
2023-04-14T04:23:07.124Z,97817.00
2023-04-14T04:25:33.205Z,97821.53
2023-04-14T04:27:59.312Z,97817.81
2023-04-14T04:30:25.424Z,97820.72
2023-04-14T04:32:51.593Z,97815.38
2023-04-14T04:35:17.739Z,97815.38
2023-04-14T04:37:43.866Z,97817.25
2023-04-14T04:40:10.002Z,97814.59
2023-04-14T04:42:36.122Z,97816.41
2023-04-14T04:45:02.227Z,97821.75
2023-04-14T04:47:28.354Z,97819.06
2023-04-14T04:49:54.502Z,97821.53
2023-04-14T04:52:20.619Z,97819.91
2023-04-14T04:54:46.724Z,97817.25
2023-04-14T04:57:12.839Z,97812.91
2023-04-14T04:59:38.930Z,97819.06
2023-04-14T05:02:05.061Z,97825.25
2023-04-14T05:04:31.252Z,97820.72
2023-04-14T05:06:57.413Z,97822.78
2023-04-14T05:09:23.509Z,97822.78
2023-04-14T05:11:49.637Z,97822.78
2023-04-14T05:14:15.731Z,97820.13
2023-04-14T05:16:41.828Z,97820.31
2023-04-14T05:19:07.958Z,97821.13
2023-04-14T05:21:34.100Z,97820.31
2023-04-14T05:24:00.227Z,97825.44
2023-04-14T05:26:48.810Z,97827.31
2023-04-14T05:29:12.400Z,97823.81
2023-04-14T05:31:38.656Z,97826.47
2023-04-14T05:34:04.864Z,97827.31
2023-04-14T05:36:30.967Z,97834.47
2023-04-14T05:38:57.078Z,97842.47
2023-04-14T05:41:23.168Z,97834.47
2023-04-14T05:43:49.264Z,97843.31
2023-04-14T05:46:15.422Z,97836.31
2023-04-14T05:48:41.525Z,97837.13
2023-04-14T05:51:07.652Z,97835.50
2023-04-14T05:53:33.787Z,97835.50
2023-04-14T05:55:59.917Z,97838.19
2023-04-14T05:58:26.037Z,97840.03
2023-04-14T06:00:52.154Z,97846.19
2023-04-14T06:03:18.451Z,97845.38
2023-04-14T06:05:44.663Z,97831.22
2023-04-14T06:08:10.914Z,97840.03
2023-04-14T06:10:37.037Z,97842.91
2023-04-14T06:13:03.152Z,97839.22
2023-04-14T06:15:29.278Z,97827.72
2023-04-14T06:17:55.404Z,97838.19
2023-04-14T06:20:21.502Z,97843.72
2023-04-14T06:22:47.623Z,97839.22
2023-04-14T06:25:13.722Z,97838.38
2023-04-14T06:27:39.834Z,97842.09
2023-04-14T06:30:05.943Z,97842.09
2023-04-14T06:32:32.069Z,97841.28
2023-04-14T06:34:58.204Z,97836.75
2023-04-14T06:37:24.324Z,97840.25
2023-04-14T06:39:50.429Z,97834.91
2023-04-14T06:42:16.531Z,97830.63
2023-04-14T06:44:42.676Z,97834.09
2023-04-14T06:47:08.780Z,97830.63
2023-04-14T06:49:34.883Z,97829.81
2023-04-14T06:52:01.005Z,97830.63
2023-04-14T06:54:27.101Z,97826.28
2023-04-14T06:56:53.204Z,97820.97
2023-04-14T06:59:19.318Z,97823.63
2023-04-14T07:01:45.510Z,97821.81
2023-04-14T07:04:11.709Z,97813.78
2023-04-14T07:06:37.864Z,97823.63
2023-04-14T07:09:03.959Z,97813.78
2023-04-14T07:11:30.064Z,97816.47
2023-04-14T07:13:56.194Z,97812.94
2023-04-14T07:16:22.335Z,97813.78
2023-04-14T07:18:48.520Z,97815.63
2023-04-14T07:21:14.616Z,97811.13
2023-04-14T07:23:44.526Z,97817.28
2023-04-14T07:26:10.657Z,97812.94
2023-04-14T07:28:36.861Z,97821.81
2023-04-14T07:31:03.001Z,97813.78
2023-04-14T07:33:29.134Z,97820.75
2023-04-14T07:36:03.069Z,97822.63
2023-04-14T07:38:30.039Z,97819.94
2023-04-14T07:40:56.145Z,97823.41
2023-04-14T07:43:22.244Z,97819.94
2023-04-14T07:45:48.374Z,97812.94
2023-04-14T07:48:14.538Z,97819.13
2023-04-14T07:50:40.650Z,97808.47
2023-04-14T07:53:06.758Z,97816.47
2023-04-14T07:55:32.861Z,97812.94
2023-04-14T07:57:58.961Z,97820.75
2023-04-14T08:00:25.077Z,97821.56
2023-04-14T08:02:51.421Z,97821.81
2023-04-14T08:05:17.941Z,97818.09
2023-04-14T08:07:44.117Z,97822.63
2023-04-14T08:10:10.280Z,97820.75
2023-04-14T08:12:36.376Z,97821.56
2023-04-14T08:15:02.492Z,97826.09
2023-04-14T08:17:29.122Z,97823.41
2023-04-14T08:19:55.226Z,97819.94
2023-04-14T08:22:21.376Z,97824.22
2023-04-14T08:24:47.497Z,97820.75
2023-04-14T08:27:13.605Z,97819.94
2023-04-14T08:29:39.728Z,97821.56
2023-04-14T08:32:06.520Z,97818.91
2023-04-14T08:34:32.757Z,97822.63
2023-04-14T08:36:58.854Z,97818.91
2023-04-14T08:39:24.970Z,97816.22
2023-04-14T08:41:51.070Z,97817.03
2023-04-14T08:44:17.162Z,97817.88
2023-04-14T08:46:43.289Z,97816.22
2023-04-14T08:49:09.385Z,97816.22
2023-04-14T08:51:35.513Z,97811.72
2023-04-14T08:54:01.835Z,97817.03
2023-04-14T08:56:28.270Z,97819.72
2023-04-14T08:58:54.367Z,97810.69
2023-04-14T09:01:20.522Z,97807.22
2023-04-14T09:03:46.926Z,97807.22
2023-04-14T09:06:13.118Z,97804.53
2023-04-14T09:08:39.236Z,97809.88
2023-04-14T09:11:05.367Z,97810.47
2023-04-14T09:13:31.492Z,97802.69
2023-04-14T09:15:57.618Z,97798.97
2023-04-14T09:18:23.728Z,97806.16
2023-04-14T09:21:28.963Z,97804.31
2023-04-14T09:23:35.944Z,97800.84
2023-04-14T09:26:02.032Z,97792.81
2023-04-14T09:28:28.121Z,97801.66
2023-04-14T09:30:54.276Z,97794.44
2023-04-14T09:35:51.556Z,97789.97
2023-04-14T09:38:17.675Z,97786.44
2023-04-14T09:40:43.805Z,97782.75
2023-04-14T09:43:09.889Z,97784.38
2023-04-14T09:45:35.996Z,97787.06
2023-04-14T09:48:02.145Z,97782.56
2023-04-14T09:50:28.251Z,97780.91
2023-04-14T09:52:54.368Z,97772.69
2023-04-14T09:55:20.484Z,97768.38
2023-04-14T09:57:46.575Z,97766.56
2023-04-14T10:00:12.722Z,97759.56
2023-04-14T10:02:38.904Z,97767.38
2023-04-14T10:05:05.214Z,97756.69
2023-04-14T10:07:31.409Z,97760.97
2023-04-14T10:09:57.510Z,97762.03
2023-04-14T10:12:23.597Z,97761.22
2023-04-14T10:14:50.187Z,97760.38
2023-04-14T10:17:16.323Z,97754.84
2023-04-14T10:19:42.434Z,97752.16
2023-04-14T10:22:08.578Z,97751.34
2023-04-14T10:24:34.667Z,97743.34
2023-04-14T10:27:00.778Z,97757.50
2023-04-14T10:29:27.013Z,97750.31
2023-04-14T10:31:53.156Z,97742.31
2023-04-14T10:34:19.299Z,97744.97
2023-04-14T10:36:47.417Z,97744.97
2023-04-14T10:39:13.519Z,97743.94
2023-04-14T10:41:39.617Z,97742.31
2023-04-14T10:44:05.753Z,97748.25
2023-04-14T10:46:31.937Z,97738.63
2023-04-14T10:48:58.218Z,97736.97
2023-04-14T10:51:24.420Z,97728.75
2023-04-14T10:53:53.642Z,97726.91
2023-04-14T10:56:19.758Z,97726.09
2023-04-14T10:58:45.894Z,97718.91
2023-04-14T11:01:12.008Z,97716.22
2023-04-14T11:03:38.317Z,97714.38
2023-04-14T11:06:04.667Z,97714.38
2023-04-14T11:08:30.765Z,97719.69
2023-04-14T11:10:56.854Z,97712.50
2023-04-14T11:13:22.971Z,97709.84
2023-04-14T11:15:49.124Z,97707.78
2023-04-14T11:18:15.348Z,97708.00
2023-04-14T11:20:41.653Z,97698.97
2023-04-14T11:23:07.764Z,97698.97
2023-04-14T11:25:33.878Z,97697.09
2023-04-14T11:28:00.008Z,97696.28
2023-04-14T11:30:26.131Z,97688.28
2023-04-14T11:32:52.342Z,97691.75
2023-04-14T11:35:18.548Z,97680.28
2023-04-14T11:37:44.699Z,97696.91
2023-04-14T11:40:10.806Z,97687.28
2023-04-14T11:42:36.952Z,97686.44
2023-04-14T11:45:03.069Z,97683.56
2023-04-14T11:47:29.238Z,97682.75
2023-04-14T11:49:55.367Z,97682.75
2023-04-14T11:52:21.465Z,97681.69
2023-04-14T11:54:47.647Z,97684.97
2023-04-14T11:57:13.784Z,97684.16
2023-04-14T11:59:39.870Z,97686.00
2023-04-14T12:02:06.040Z,97682.31
2023-04-14T12:04:32.254Z,97679.63
2023-04-14T12:06:58.617Z,97675.91
2023-04-14T12:09:24.966Z,97673.25
2023-04-14T12:11:51.090Z,97680.25
2023-04-14T12:14:17.189Z,97674.09
2023-04-14T12:16:43.362Z,97664.22
2023-04-14T12:19:09.524Z,97665.25
2023-04-14T12:21:35.626Z,97669.56
2023-04-14T12:24:01.713Z,97666.69
2023-04-14T12:26:27.837Z,97664.81
2023-04-14T12:28:53.959Z,97663.19
2023-04-14T12:31:20.080Z,97666.69
2023-04-14T12:33:46.403Z,97661.34
2023-04-14T12:36:12.582Z,97664.81
2023-04-14T12:38:38.706Z,97659.50
2023-04-14T12:41:04.842Z,97661.13
2023-04-14T12:43:30.963Z,97659.50
2023-04-14T12:45:57.074Z,97655.78
2023-04-14T12:48:23.177Z,97652.09
2023-04-14T12:50:51.195Z,97653.91
2023-04-14T12:53:17.894Z,97652.91
2023-04-14T12:55:44.002Z,97648.38
2023-04-14T12:58:10.104Z,97648.38
2023-04-14T13:00:36.279Z,97643.84
2023-04-14T13:03:02.631Z,97647.31
2023-04-14T13:05:28.857Z,97644.66
2023-04-14T13:07:54.960Z,97636.66
2023-04-14T13:10:21.281Z,97627.63
2023-04-14T13:12:47.539Z,97631.31
2023-04-14T13:16:11.419Z,97630.28
2023-04-14T13:17:59.830Z,97629.25
2023-04-14T13:20:25.956Z,97627.38
2023-04-14T13:22:52.053Z,97627.38
2023-04-14T13:25:18.542Z,97619.38
2023-04-14T13:27:44.630Z,97626.56
2023-04-14T13:30:10.842Z,97621.84
2023-04-14T13:32:36.976Z,97624.50
2023-04-14T13:35:03.125Z,97616.50
2023-04-14T13:37:29.238Z,97613.00
2023-04-14T13:39:55.499Z,97611.16
2023-04-14T13:42:21.589Z,97611.16
2023-04-14T13:44:47.699Z,97607.47
2023-04-14T13:47:13.802Z,97606.63
2023-04-14T13:49:39.920Z,97598.41
2023-04-14T13:52:06.056Z,97606.41
2023-04-14T13:54:32.173Z,97603.75
2023-04-14T13:56:58.313Z,97602.69
2023-04-14T13:59:24.415Z,97604.56
2023-04-14T14:01:50.654Z,97598.41
2023-04-14T14:04:16.925Z,97606.22
2023-04-14T14:06:43.095Z,97600.88
2023-04-14T14:09:09.394Z,97605.16
2023-04-14T14:11:35.757Z,97600.63
2023-04-14T14:14:02.103Z,97597.16
2023-04-14T14:18:57.383Z,97601.44
2023-04-14T14:21:23.478Z,97597.97
2023-04-14T14:23:49.644Z,97596.09
2023-04-14T14:26:15.798Z,97594.28
2023-04-14T14:28:41.893Z,97603.91
2023-04-14T14:31:08.030Z,97589.75
2023-04-14T14:33:34.182Z,97586.88
2023-04-14T14:36:00.275Z,97582.75
2023-04-14T14:38:26.391Z,97592.41
2023-04-14T14:40:52.481Z,97581.75
2023-04-14T14:43:18.698Z,97583.34
2023-04-14T14:45:44.818Z,97586.88
2023-04-14T14:48:11.152Z,97582.34
2023-04-14T14:50:37.247Z,97582.09
2023-04-14T14:53:03.319Z,97582.09
2023-04-14T14:55:29.421Z,97587.44
2023-04-14T14:57:55.536Z,97572.25
2023-04-14T15:00:21.663Z,97569.59
2023-04-14T15:02:48.219Z,97574.94
2023-04-14T15:05:14.444Z,97573.06
2023-04-14T15:07:40.585Z,97570.41
2023-04-14T15:10:06.767Z,97570.41
2023-04-14T15:12:32.886Z,97565.06
2023-04-14T15:14:59.020Z,97572.81
2023-04-14T15:17:25.146Z,97571.00
2023-04-14T15:19:51.294Z,97568.09
2023-04-14T15:22:17.405Z,97564.81
2023-04-14T15:24:43.510Z,97568.31
2023-04-14T15:27:09.619Z,97569.94
2023-04-14T15:29:36.128Z,97571.59
2023-04-14T15:32:02.279Z,97566.25
2023-04-14T15:34:28.446Z,97567.28
2023-04-14T15:36:54.563Z,97574.25
2023-04-14T15:39:20.666Z,97570.53
2023-04-14T15:41:46.767Z,97580.41
2023-04-14T15:44:12.915Z,97579.38
2023-04-14T15:46:38.997Z,97578.56
2023-04-14T15:49:05.074Z,97589.22
2023-04-14T15:51:31.179Z,97583.88
2023-04-14T15:53:57.265Z,97590.03
2023-04-14T15:56:23.745Z,97585.50
2023-04-14T15:58:49.938Z,97595.38
2023-04-14T16:01:16.066Z,97598.66
2023-04-14T16:03:42.355Z,97600.50
2023-04-14T16:06:08.519Z,97605.84
2023-04-14T16:08:34.619Z,97602.94
2023-04-14T16:11:00.748Z,97590.63
2023-04-14T16:13:26.883Z,97591.44
2023-04-14T16:15:52.994Z,97590.63
2023-04-14T16:18:19.123Z,97597.59
2023-04-14T16:20:45.245Z,97595.78
2023-04-14T16:23:11.327Z,97601.09
2023-04-14T16:25:37.420Z,97597.38
2023-04-14T16:28:03.539Z,97603.53
2023-04-14T16:30:29.644Z,97602.72
2023-04-14T16:32:55.792Z,97607.03
2023-04-14T16:35:21.980Z,97610.75
2023-04-14T16:37:48.093Z,97609.69
2023-04-14T16:40:14.189Z,97607.84
2023-04-14T16:42:40.317Z,97611.34
2023-04-14T16:45:06.432Z,97616.69
2023-04-14T16:47:32.546Z,97609.47
2023-04-14T16:49:58.733Z,97602.28
2023-04-14T16:52:24.818Z,97605.19
2023-04-14T16:54:50.899Z,97616.69
2023-04-14T16:57:17.499Z,97606.00
2023-04-14T16:59:43.584Z,97612.97
2023-04-14T17:02:09.834Z,97607.63
2023-04-14T17:04:36.142Z,97607.63
2023-04-14T17:07:02.301Z,97606.59
2023-04-14T17:09:28.403Z,97597.78
2023-04-14T17:11:54.497Z,97604.75
2023-04-14T17:14:20.593Z,97601.00
2023-04-14T17:16:46.722Z,97598.34
2023-04-14T17:19:12.891Z,97599.41
2023-04-14T17:21:38.986Z,97594.88
2023-04-14T17:24:05.107Z,97600.22
2023-04-14T17:26:31.247Z,97597.53
2023-04-14T17:28:57.336Z,97600.00
2023-04-14T17:31:23.459Z,97597.31
2023-04-14T17:33:49.657Z,97589.53
2023-04-14T17:36:15.774Z,97597.31
2023-04-14T17:38:41.878Z,97595.47
2023-04-14T17:41:08.007Z,97594.66
2023-04-14T17:43:34.088Z,97595.69
2023-04-14T17:46:00.212Z,97598.13
2023-04-14T17:48:26.396Z,97601.63
2023-04-14T17:50:52.483Z,97599.75
2023-04-14T17:53:18.591Z,97601.63
2023-04-14T17:55:44.713Z,97605.09
2023-04-14T17:58:10.823Z,97615.78
2023-04-14T18:00:36.920Z,97600.59
2023-04-14T18:03:03.164Z,97613.94
2023-04-14T18:05:29.310Z,97603.25
2023-04-14T18:07:55.407Z,97604.28
2023-04-14T18:10:21.525Z,97620.91
2023-04-14T18:12:47.637Z,97615.78
2023-04-14T18:15:13.829Z,97622.78
2023-04-14T18:17:39.978Z,97626.47
2023-04-14T18:20:06.096Z,97625.66
2023-04-14T18:22:32.250Z,97629.97
2023-04-14T18:24:58.374Z,97633.44
2023-04-14T18:29:53.481Z,97630.78
2023-04-14T18:32:19.723Z,97636.13
2023-04-14T18:34:45.938Z,97631.59
2023-04-14T18:37:12.031Z,97635.06
2023-04-14T18:39:38.196Z,97637.13
2023-04-14T18:42:04.287Z,97636.13
2023-04-14T18:44:30.382Z,97635.31
2023-04-14T18:46:56.501Z,97636.94
2023-04-14T18:49:22.611Z,97637.75
2023-04-14T18:51:48.708Z,97643.06
2023-04-14T18:54:14.867Z,97639.59
2023-04-14T18:56:40.964Z,97638.78
2023-04-14T18:59:07.049Z,97644.94
2023-04-14T19:01:34.758Z,97649.25
2023-04-14T19:04:02.134Z,97646.81
2023-04-14T19:06:35.377Z,97643.31
2023-04-14T19:09:02.028Z,97648.41
2023-04-14T19:11:28.407Z,97647.59
2023-04-14T19:13:54.526Z,97645.75
2023-04-14T19:16:20.700Z,97648.41
2023-04-14T19:18:46.859Z,97647.59
2023-04-14T19:21:12.963Z,97655.63
2023-04-14T19:23:39.081Z,97652.13
2023-04-14T19:26:05.170Z,97658.28
2023-04-14T19:28:31.257Z,97652.94
2023-04-14T19:30:57.381Z,97660.97
2023-04-14T19:33:25.078Z,97660.97
2023-04-14T19:35:52.887Z,97660.75
2023-04-14T19:38:18.989Z,97655.63
2023-04-14T19:40:45.098Z,97648.41
2023-04-14T19:43:12.277Z,97651.09
2023-04-14T19:45:39.368Z,97656.44
2023-04-14T19:48:16.523Z,97654.81
2023-04-14T19:50:48.529Z,97663.63
2023-04-14T19:53:14.621Z,97652.94
2023-04-14T19:55:40.715Z,97660.16
2023-04-14T19:58:07.460Z,97650.28
2023-04-14T20:00:33.556Z,97657.47
2023-04-14T20:02:59.715Z,97659.94
2023-04-14T20:05:25.872Z,97649.25
2023-04-14T20:07:51.984Z,97653.75
2023-04-14T20:10:18.081Z,97652.94
2023-04-14T20:12:44.187Z,97659.09
2023-04-14T20:15:10.278Z,97655.41
2023-04-14T20:17:36.454Z,97656.44
2023-04-14T20:20:02.641Z,97651.94
2023-04-14T20:22:28.723Z,97654.59
2023-04-14T20:24:54.878Z,97651.09
2023-04-14T20:27:21.005Z,97651.09
2023-04-14T20:29:47.091Z,97652.13
2023-04-14T20:32:13.189Z,97658.28
2023-04-14T20:34:39.340Z,97662.81
2023-04-14T20:37:05.444Z,97652.34
2023-04-14T20:39:31.528Z,97654.81
2023-04-14T20:41:57.688Z,97654.81
2023-04-14T20:44:23.780Z,97654.81
2023-04-14T20:46:49.986Z,97656.66
2023-04-14T20:49:16.131Z,97661.16
2023-04-14T20:51:42.332Z,97663.84
2023-04-14T20:54:08.446Z,97659.34
2023-04-14T20:56:34.560Z,97657.69
2023-04-14T20:59:00.878Z,97662.00
2023-04-14T21:01:27.118Z,97657.69
2023-04-14T21:03:53.479Z,97663.84
2023-04-14T21:06:19.648Z,97662.00
2023-04-14T21:08:45.739Z,97657.69
2023-04-14T21:11:16.157Z,97659.56
2023-04-14T21:15:29.406Z,97658.50
2023-04-14T21:16:29.948Z,97657.69
2023-04-14T21:18:56.076Z,97662.81
2023-04-14T21:21:22.187Z,97658.50
2023-04-14T21:23:48.311Z,97655.84
2023-04-14T21:26:14.425Z,97652.34
2023-04-14T21:28:40.521Z,97652.34
2023-04-14T21:31:06.695Z,97651.53
2023-04-14T21:33:32.871Z,97653.41
2023-04-14T21:35:58.965Z,97663.03
2023-04-14T21:38:25.101Z,97659.56
2023-04-14T21:40:51.226Z,97657.94
2023-04-14T21:43:17.317Z,97658.75
2023-04-14T21:45:43.467Z,97664.09
2023-04-14T21:48:09.599Z,97667.56
2023-04-14T21:50:35.700Z,97667.56
2023-04-14T21:53:01.815Z,97662.44
2023-04-14T21:55:27.921Z,97665.94
2023-04-14T21:57:54.555Z,97665.09
2023-04-14T22:00:20.724Z,97660.59
2023-04-14T22:02:47.017Z,97664.28
2023-04-14T22:05:13.297Z,97660.81
2023-04-14T22:07:39.514Z,97655.47
2023-04-14T22:10:05.634Z,97656.28
2023-04-14T22:12:31.724Z,97650.13
2023-04-14T22:14:57.833Z,97649.31
2023-04-14T22:17:23.978Z,97657.34
2023-04-14T22:19:50.116Z,97646.66
2023-04-14T22:22:16.214Z,97662.66
2023-04-14T22:24:42.292Z,97662.66
2023-04-14T22:27:08.386Z,97657.34
2023-04-14T22:29:34.510Z,97657.34
2023-04-14T22:32:00.614Z,97656.53
2023-04-14T22:34:26.723Z,97653.00
2023-04-14T22:36:52.826Z,97661.03
2023-04-14T22:39:18.946Z,97660.00
2023-04-14T22:41:45.037Z,97667.19
2023-04-14T22:44:11.549Z,97663.69
2023-04-14T22:46:37.780Z,97675.41
2023-04-14T22:49:04.133Z,97662.06
2023-04-14T22:51:30.498Z,97666.38
2023-04-14T22:53:56.603Z,97672.75
2023-04-14T22:56:22.694Z,97686.09
2023-04-14T22:58:48.832Z,97686.91
2023-04-14T23:01:21.881Z,97679.94
2023-04-14T23:03:48.704Z,97683.44
2023-04-14T23:06:14.869Z,97679.09
2023-04-14T23:08:40.976Z,97672.75
2023-04-14T23:11:08.347Z,97670.09
2023-04-14T23:13:34.461Z,97683.44
2023-04-14T23:16:00.584Z,97674.59
2023-04-14T23:18:26.681Z,97675.41
2023-04-14T23:20:52.799Z,97670.28
2023-04-14T23:23:18.893Z,97673.78
2023-04-14T23:25:44.977Z,97672.16
2023-04-14T23:28:11.079Z,97679.34
2023-04-14T23:30:37.170Z,97677.50
2023-04-14T23:33:03.291Z,97679.34
2023-04-14T23:35:29.413Z,97677.50
2023-04-14T23:37:55.515Z,97683.88
2023-04-14T23:40:21.603Z,97685.50
2023-04-14T23:42:47.741Z,97679.34
2023-04-14T23:45:13.852Z,97676.69
2023-04-14T23:47:39.978Z,97679.56
2023-04-14T23:50:06.261Z,97676.88
2023-04-14T23:52:32.369Z,97681.22
2023-04-14T23:54:58.470Z,97669.69
2023-04-14T23:57:24.612Z,97668.88
2023-04-14T23:59:50.717Z,97665.19
